sensor_id;sensor_type;location;lat;lon;timestamp;P1;durP1;ratioP1;P2;durP2;ratioP2
39242;SDS011;29823;47.404;8.566;2022-07-29T00:00:17;5.63;;;2.10;;
39242;SDS011;29823;47.404;8.566;2022-07-29T00:02:45;3.88;;;2.50;;
39242;SDS011;29823;47.404;8.566;2022-07-29T00:05:13;7.70;;;2.15;;
39242;SDS011;29823;47.404;8.566;2022-07-29T00:07:41;4.25;;;2.60;;
39242;SDS011;29823;47.404;8.566;2022-07-29T00:10:09;3.40;;;2.55;;
39242;SDS011;29823;47.404;8.566;2022-07-29T00:12:38;2.72;;;2.05;;
39242;SDS011;29823;47.404;8.566;2022-07-29T00:15:06;3.35;;;2.50;;
39242;SDS011;29823;47.404;8.566;2022-07-29T00:17:35;2.80;;;2.40;;
39242;SDS011;29823;47.404;8.566;2022-07-29T00:20:03;9.15;;;2.22;;
39242;SDS011;29823;47.404;8.566;2022-07-29T00:22:31;3.67;;;2.45;;
39242;SDS011;29823;47.404;8.566;2022-07-29T00:24:59;3.58;;;2.75;;
39242;SDS011;29823;47.404;8.566;2022-07-29T00:27:27;7.03;;;2.30;;
39242;SDS011;29823;47.404;8.566;2022-07-29T00:29:56;2.80;;;2.30;;
39242;SDS011;29823;47.404;8.566;2022-07-29T00:32:24;2.78;;;2.15;;
39242;SDS011;29823;47.404;8.566;2022-07-29T00:34:51;3.22;;;2.25;;
39242;SDS011;29823;47.404;8.566;2022-07-29T00:37:36;5.18;;;2.22;;
39242;SDS011;29823;47.404;8.566;2022-07-29T00:40:05;2.88;;;2.33;;
39242;SDS011;29823;47.404;8.566;2022-07-29T00:42:40;3.22;;;2.60;;
39242;SDS011;29823;47.404;8.566;2022-07-29T00:45:10;3.25;;;2.20;;
39242;SDS011;29823;47.404;8.566;2022-07-29T00:47:39;3.22;;;2.00;;
39242;SDS011;29823;47.404;8.566;2022-07-29T00:50:08;5.18;;;2.22;;
39242;SDS011;29823;47.404;8.566;2022-07-29T00:52:38;3.72;;;2.60;;
39242;SDS011;29823;47.404;8.566;2022-07-29T00:55:08;5.30;;;2.00;;
39242;SDS011;29823;47.404;8.566;2022-07-29T00:57:38;3.97;;;2.35;;
39242;SDS011;29823;47.404;8.566;2022-07-29T01:00:08;6.20;;;2.40;;
39242;SDS011;29823;47.404;8.566;2022-07-29T01:02:38;2.95;;;2.20;;
39242;SDS011;29823;47.404;8.566;2022-07-29T01:05:06;4.85;;;2.50;;
39242;SDS011;29823;47.404;8.566;2022-07-29T01:07:35;2.20;;;1.88;;
39242;SDS011;29823;47.404;8.566;2022-07-29T01:10:04;4.97;;;2.38;;
39242;SDS011;29823;47.404;8.566;2022-07-29T01:12:35;2.63;;;2.08;;
39242;SDS011;29823;47.404;8.566;2022-07-29T01:15:05;3.80;;;2.35;;
39242;SDS011;29823;47.404;8.566;2022-07-29T01:17:36;4.07;;;2.22;;
39242;SDS011;29823;47.404;8.566;2022-07-29T01:20:20;5.30;;;2.05;;
39242;SDS011;29823;47.404;8.566;2022-07-29T01:23:18;2.50;;;1.80;;
39242;SDS011;29823;47.404;8.566;2022-07-29T01:26:09;2.83;;;2.03;;
39242;SDS011;29823;47.404;8.566;2022-07-29T01:29:02;4.65;;;2.05;;
39242;SDS011;29823;47.404;8.566;2022-07-29T01:31:35;2.65;;;2.13;;
39242;SDS011;29823;47.404;8.566;2022-07-29T01:34:25;4.78;;;2.35;;
39242;SDS011;29823;47.404;8.566;2022-07-29T01:37:01;2.65;;;1.98;;
39242;SDS011;29823;47.404;8.566;2022-07-29T01:39:35;2.42;;;2.22;;
39242;SDS011;29823;47.404;8.566;2022-07-29T01:42:06;3.45;;;2.08;;
39242;SDS011;29823;47.404;8.566;2022-07-29T01:44:41;2.95;;;2.05;;
39242;SDS011;29823;47.404;8.566;2022-07-29T01:47:17;2.47;;;1.73;;
39242;SDS011;29823;47.404;8.566;2022-07-29T01:52:20;7.03;;;2.40;;
39242;SDS011;29823;47.404;8.566;2022-07-29T01:54:53;2.90;;;1.88;;
39242;SDS011;29823;47.404;8.566;2022-07-29T01:57:25;2.90;;;1.88;;
39242;SDS011;29823;47.404;8.566;2022-07-29T01:59:56;1.83;;;1.45;;
39242;SDS011;29823;47.404;8.566;2022-07-29T02:02:26;4.17;;;1.87;;
39242;SDS011;29823;47.404;8.566;2022-07-29T02:04:55;3.45;;;1.80;;
39242;SDS011;29823;47.404;8.566;2022-07-29T02:07:24;2.05;;;1.75;;
39242;SDS011;29823;47.404;8.566;2022-07-29T02:09:56;3.38;;;1.98;;
39242;SDS011;29823;47.404;8.566;2022-07-29T02:12:26;4.20;;;1.88;;
39242;SDS011;29823;47.404;8.566;2022-07-29T02:14:58;2.33;;;1.85;;
39242;SDS011;29823;47.404;8.566;2022-07-29T02:17:28;3.35;;;1.85;;
39242;SDS011;29823;47.404;8.566;2022-07-29T02:20:04;3.15;;;1.88;;
39242;SDS011;29823;47.404;8.566;2022-07-29T02:22:35;4.18;;;1.80;;
39242;SDS011;29823;47.404;8.566;2022-07-29T02:25:05;4.70;;;1.63;;
39242;SDS011;29823;47.404;8.566;2022-07-29T02:27:39;3.78;;;1.60;;
39242;SDS011;29823;47.404;8.566;2022-07-29T02:30:10;2.45;;;1.65;;
39242;SDS011;29823;47.404;8.566;2022-07-29T02:32:40;4.55;;;1.70;;
39242;SDS011;29823;47.404;8.566;2022-07-29T02:35:12;2.20;;;1.70;;
39242;SDS011;29823;47.404;8.566;2022-07-29T02:37:41;2.60;;;1.80;;
39242;SDS011;29823;47.404;8.566;2022-07-29T02:40:12;3.25;;;2.20;;
39242;SDS011;29823;47.404;8.566;2022-07-29T02:42:42;2.45;;;1.52;;
39242;SDS011;29823;47.404;8.566;2022-07-29T02:45:13;4.60;;;2.22;;
39242;SDS011;29823;47.404;8.566;2022-07-29T02:47:42;2.50;;;1.77;;
39242;SDS011;29823;47.404;8.566;2022-07-29T02:50:15;2.83;;;1.63;;
39242;SDS011;29823;47.404;8.566;2022-07-29T02:52:49;2.42;;;1.73;;
39242;SDS011;29823;47.404;8.566;2022-07-29T02:55:22;3.95;;;1.77;;
39242;SDS011;29823;47.404;8.566;2022-07-29T02:57:57;2.25;;;1.70;;
39242;SDS011;29823;47.404;8.566;2022-07-29T03:00:31;2.15;;;1.80;;
39242;SDS011;29823;47.404;8.566;2022-07-29T03:03:03;6.07;;;3.58;;
39242;SDS011;29823;47.404;8.566;2022-07-29T03:05:34;2.50;;;1.93;;
39242;SDS011;29823;47.404;8.566;2022-07-29T03:08:04;1.90;;;1.33;;
39242;SDS011;29823;47.404;8.566;2022-07-29T03:10:35;4.72;;;2.03;;
39242;SDS011;29823;47.404;8.566;2022-07-29T03:13:04;4.43;;;1.83;;
39242;SDS011;29823;47.404;8.566;2022-07-29T03:15:34;3.03;;;1.48;;
39242;SDS011;29823;47.404;8.566;2022-07-29T03:18:04;2.05;;;1.70;;
39242;SDS011;29823;47.404;8.566;2022-07-29T03:20:34;3.33;;;1.70;;
39242;SDS011;29823;47.404;8.566;2022-07-29T03:23:02;5.47;;;1.80;;
39242;SDS011;29823;47.404;8.566;2022-07-29T03:25:30;1.58;;;1.48;;
39242;SDS011;29823;47.404;8.566;2022-07-29T03:27:58;1.92;;;1.45;;
39242;SDS011;29823;47.404;8.566;2022-07-29T03:30:26;3.35;;;1.50;;
39242;SDS011;29823;47.404;8.566;2022-07-29T03:32:58;2.55;;;1.58;;
39242;SDS011;29823;47.404;8.566;2022-07-29T03:35:27;2.40;;;1.50;;
39242;SDS011;29823;47.404;8.566;2022-07-29T03:37:57;2.85;;;1.77;;
39242;SDS011;29823;47.404;8.566;2022-07-29T03:40:25;2.10;;;1.60;;
39242;SDS011;29823;47.404;8.566;2022-07-29T03:42:58;3.25;;;1.90;;
39242;SDS011;29823;47.404;8.566;2022-07-29T03:45:28;3.00;;;1.70;;
39242;SDS011;29823;47.404;8.566;2022-07-29T03:48:01;3.03;;;1.80;;
39242;SDS011;29823;47.404;8.566;2022-07-29T03:50:31;2.47;;;1.73;;
39242;SDS011;29823;47.404;8.566;2022-07-29T03:53:00;3.35;;;1.67;;
39242;SDS011;29823;47.404;8.566;2022-07-29T03:55:32;3.67;;;1.70;;
39242;SDS011;29823;47.404;8.566;2022-07-29T03:58:04;2.05;;;1.80;;
39242;SDS011;29823;47.404;8.566;2022-07-29T04:00:35;3.05;;;1.85;;
39242;SDS011;29823;47.404;8.566;2022-07-29T04:03:05;5.40;;;1.92;;
39242;SDS011;29823;47.404;8.566;2022-07-29T04:05:37;4.25;;;2.10;;
39242;SDS011;29823;47.404;8.566;2022-07-29T04:08:06;2.80;;;1.83;;
39242;SDS011;29823;47.404;8.566;2022-07-29T04:10:34;3.72;;;1.83;;
39242;SDS011;29823;47.404;8.566;2022-07-29T04:13:02;3.20;;;1.90;;
39242;SDS011;29823;47.404;8.566;2022-07-29T04:15:30;3.60;;;1.63;;
39242;SDS011;29823;47.404;8.566;2022-07-29T04:17:58;2.60;;;1.95;;
39242;SDS011;29823;47.404;8.566;2022-07-29T04:20:27;2.13;;;1.83;;
39242;SDS011;29823;47.404;8.566;2022-07-29T04:22:55;2.55;;;1.90;;
39242;SDS011;29823;47.404;8.566;2022-07-29T04:25:23;3.53;;;2.15;;
39242;SDS011;29823;47.404;8.566;2022-07-29T04:27:50;4.38;;;1.98;;
39242;SDS011;29823;47.404;8.566;2022-07-29T04:30:27;3.97;;;1.73;;
39242;SDS011;29823;47.404;8.566;2022-07-29T04:32:55;3.78;;;2.03;;
39242;SDS011;29823;47.404;8.566;2022-07-29T04:35:23;2.95;;;1.90;;
39242;SDS011;29823;47.404;8.566;2022-07-29T04:37:52;3.72;;;1.88;;
39242;SDS011;29823;47.404;8.566;2022-07-29T04:40:20;2.72;;;1.75;;
39242;SDS011;29823;47.404;8.566;2022-07-29T04:42:48;1.70;;;1.58;;
39242;SDS011;29823;47.404;8.566;2022-07-29T04:45:16;4.95;;;1.92;;
39242;SDS011;29823;47.404;8.566;2022-07-29T04:47:48;2.42;;;1.80;;
39242;SDS011;29823;47.404;8.566;2022-07-29T04:50:15;5.25;;;2.20;;
39242;SDS011;29823;47.404;8.566;2022-07-29T04:52:43;3.33;;;1.88;;
39242;SDS011;29823;47.404;8.566;2022-07-29T04:55:13;3.92;;;1.98;;
39242;SDS011;29823;47.404;8.566;2022-07-29T04:57:40;3.58;;;1.98;;
39242;SDS011;29823;47.404;8.566;2022-07-29T05:00:09;3.60;;;2.20;;
39242;SDS011;29823;47.404;8.566;2022-07-29T05:02:37;2.20;;;1.75;;
39242;SDS011;29823;47.404;8.566;2022-07-29T05:05:05;4.55;;;2.10;;
39242;SDS011;29823;47.404;8.566;2022-07-29T05:07:33;5.15;;;1.90;;
39242;SDS011;29823;47.404;8.566;2022-07-29T05:10:01;3.45;;;2.10;;
39242;SDS011;29823;47.404;8.566;2022-07-29T05:12:31;2.97;;;2.13;;
39242;SDS011;29823;47.404;8.566;2022-07-29T05:14:59;1.90;;;1.50;;
39242;SDS011;29823;47.404;8.566;2022-07-29T05:17:27;1.98;;;1.55;;
39242;SDS011;29823;47.404;8.566;2022-07-29T05:19:55;4.40;;;2.03;;
39242;SDS011;29823;47.404;8.566;2022-07-29T05:22:22;3.28;;;1.90;;
39242;SDS011;29823;47.404;8.566;2022-07-29T05:24:50;4.32;;;1.90;;
39242;SDS011;29823;47.404;8.566;2022-07-29T05:27:18;3.03;;;1.80;;
39242;SDS011;29823;47.404;8.566;2022-07-29T05:29:47;2.90;;;1.67;;
39242;SDS011;29823;47.404;8.566;2022-07-29T05:32:15;3.47;;;2.10;;
39242;SDS011;29823;47.404;8.566;2022-07-29T05:34:43;3.00;;;2.30;;
39242;SDS011;29823;47.404;8.566;2022-07-29T05:37:17;6.38;;;2.17;;
39242;SDS011;29823;47.404;8.566;2022-07-29T05:39:45;5.57;;;2.33;;
39242;SDS011;29823;47.404;8.566;2022-07-29T05:42:22;5.13;;;1.95;;
39242;SDS011;29823;47.404;8.566;2022-07-29T05:44:52;2.45;;;2.15;;
39242;SDS011;29823;47.404;8.566;2022-07-29T05:47:21;3.55;;;2.20;;
39242;SDS011;29823;47.404;8.566;2022-07-29T05:49:49;2.92;;;2.03;;
39242;SDS011;29823;47.404;8.566;2022-07-29T05:52:17;2.78;;;2.00;;
39242;SDS011;29823;47.404;8.566;2022-07-29T05:54:45;3.70;;;2.00;;
39242;SDS011;29823;47.404;8.566;2022-07-29T05:57:16;3.70;;;2.08;;
39242;SDS011;29823;47.404;8.566;2022-07-29T05:59:44;4.43;;;2.00;;
39242;SDS011;29823;47.404;8.566;2022-07-29T06:02:14;3.78;;;2.00;;
39242;SDS011;29823;47.404;8.566;2022-07-29T06:04:42;4.80;;;2.08;;
39242;SDS011;29823;47.404;8.566;2022-07-29T06:07:10;4.95;;;1.70;;
39242;SDS011;29823;47.404;8.566;2022-07-29T06:09:38;2.97;;;1.80;;
39242;SDS011;29823;47.404;8.566;2022-07-29T06:12:06;2.53;;;1.90;;
39242;SDS011;29823;47.404;8.566;2022-07-29T06:14:34;6.68;;;1.90;;
39242;SDS011;29823;47.404;8.566;2022-07-29T06:17:04;2.97;;;1.50;;
39242;SDS011;29823;47.404;8.566;2022-07-29T06:19:34;3.08;;;1.85;;
39242;SDS011;29823;47.404;8.566;2022-07-29T06:22:03;1.90;;;1.70;;
39242;SDS011;29823;47.404;8.566;2022-07-29T06:24:31;2.78;;;1.80;;
39242;SDS011;29823;47.404;8.566;2022-07-29T06:26:58;3.53;;;1.75;;
39242;SDS011;29823;47.404;8.566;2022-07-29T06:29:26;6.05;;;2.42;;
39242;SDS011;29823;47.404;8.566;2022-07-29T06:31:54;6.85;;;1.92;;
39242;SDS011;29823;47.404;8.566;2022-07-29T06:34:22;2.70;;;1.70;;
39242;SDS011;29823;47.404;8.566;2022-07-29T06:36:51;2.30;;;1.70;;
39242;SDS011;29823;47.404;8.566;2022-07-29T06:39:20;5.22;;;2.97;;
39242;SDS011;29823;47.404;8.566;2022-07-29T06:41:48;4.50;;;1.95;;
39242;SDS011;29823;47.404;8.566;2022-07-29T06:44:16;5.88;;;2.20;;
39242;SDS011;29823;47.404;8.566;2022-07-29T06:46:45;3.55;;;1.90;;
39242;SDS011;29823;47.404;8.566;2022-07-29T06:49:15;6.68;;;1.98;;
39242;SDS011;29823;47.404;8.566;2022-07-29T06:51:43;6.40;;;1.88;;
39242;SDS011;29823;47.404;8.566;2022-07-29T06:54:12;3.33;;;1.95;;
39242;SDS011;29823;47.404;8.566;2022-07-29T06:56:41;2.75;;;1.80;;
39242;SDS011;29823;47.404;8.566;2022-07-29T06:59:09;6.05;;;1.80;;
39242;SDS011;29823;47.404;8.566;2022-07-29T07:01:40;2.85;;;1.90;;
39242;SDS011;29823;47.404;8.566;2022-07-29T07:04:10;5.03;;;1.98;;
39242;SDS011;29823;47.404;8.566;2022-07-29T07:06:40;3.92;;;2.28;;
39242;SDS011;29823;47.404;8.566;2022-07-29T07:09:08;11.65;;;3.72;;
39242;SDS011;29823;47.404;8.566;2022-07-29T07:11:37;4.88;;;2.60;;
39242;SDS011;29823;47.404;8.566;2022-07-29T07:14:04;8.27;;;2.97;;
39242;SDS011;29823;47.404;8.566;2022-07-29T07:16:32;4.90;;;2.75;;
39242;SDS011;29823;47.404;8.566;2022-07-29T07:19:00;5.65;;;3.15;;
39242;SDS011;29823;47.404;8.566;2022-07-29T07:21:28;5.95;;;3.40;;
39242;SDS011;29823;47.404;8.566;2022-07-29T07:23:56;9.15;;;3.40;;
39242;SDS011;29823;47.404;8.566;2022-07-29T07:26:25;5.53;;;3.42;;
39242;SDS011;29823;47.404;8.566;2022-07-29T07:28:55;12.45;;;4.22;;
39242;SDS011;29823;47.404;8.566;2022-07-29T07:31:23;10.85;;;4.72;;
39242;SDS011;29823;47.404;8.566;2022-07-29T07:33:50;8.68;;;3.85;;
39242;SDS011;29823;47.404;8.566;2022-07-29T07:36:19;9.50;;;4.10;;
39242;SDS011;29823;47.404;8.566;2022-07-29T07:38:47;5.78;;;3.92;;
39242;SDS011;29823;47.404;8.566;2022-07-29T07:41:15;11.45;;;4.60;;
39242;SDS011;29823;47.404;8.566;2022-07-29T07:43:43;7.07;;;4.47;;
39242;SDS011;29823;47.404;8.566;2022-07-29T07:46:12;6.35;;;4.28;;
39242;SDS011;29823;47.404;8.566;2022-07-29T07:48:40;5.20;;;3.80;;
39242;SDS011;29823;47.404;8.566;2022-07-29T07:51:08;4.53;;;3.40;;
39242;SDS011;29823;47.404;8.566;2022-07-29T07:53:35;4.50;;;3.67;;
39242;SDS011;29823;47.404;8.566;2022-07-29T07:56:03;6.30;;;3.72;;
39242;SDS011;29823;47.404;8.566;2022-07-29T07:58:37;6.13;;;3.85;;
39242;SDS011;29823;47.404;8.566;2022-07-29T08:01:05;7.20;;;4.30;;
39242;SDS011;29823;47.404;8.566;2022-07-29T08:03:34;8.55;;;4.10;;
39242;SDS011;29823;47.404;8.566;2022-07-29T08:06:02;4.63;;;3.90;;
39242;SDS011;29823;47.404;8.566;2022-07-29T08:08:31;8.68;;;3.83;;
39242;SDS011;29823;47.404;8.566;2022-07-29T08:10:58;7.10;;;4.35;;
39242;SDS011;29823;47.404;8.566;2022-07-29T08:13:34;8.52;;;4.40;;
39242;SDS011;29823;47.404;8.566;2022-07-29T08:16:03;7.47;;;4.53;;
39242;SDS011;29823;47.404;8.566;2022-07-29T08:18:40;5.95;;;5.10;;
39242;SDS011;29823;47.404;8.566;2022-07-29T08:21:09;9.23;;;4.72;;
39242;SDS011;29823;47.404;8.566;2022-07-29T08:23:40;7.82;;;4.75;;
39242;SDS011;29823;47.404;8.566;2022-07-29T08:26:24;7.03;;;4.95;;
39242;SDS011;29823;47.404;8.566;2022-07-29T08:28:52;8.60;;;5.05;;
39242;SDS011;29823;47.404;8.566;2022-07-29T08:31:20;8.90;;;5.60;;
39242;SDS011;29823;47.404;8.566;2022-07-29T08:33:49;8.63;;;5.47;;
39242;SDS011;29823;47.404;8.566;2022-07-29T08:36:17;5.88;;;4.78;;
39242;SDS011;29823;47.404;8.566;2022-07-29T08:38:47;7.40;;;5.25;;
39242;SDS011;29823;47.404;8.566;2022-07-29T08:41:15;7.35;;;5.25;;
39242;SDS011;29823;47.404;8.566;2022-07-29T08:43:45;8.05;;;4.93;;
39242;SDS011;29823;47.404;8.566;2022-07-29T08:46:13;9.30;;;5.10;;
39242;SDS011;29823;47.404;8.566;2022-07-29T08:48:41;6.57;;;4.70;;
39242;SDS011;29823;47.404;8.566;2022-07-29T08:51:12;21.63;;;15.20;;
39242;SDS011;29823;47.404;8.566;2022-07-29T08:53:42;6.15;;;5.10;;
39242;SDS011;29823;47.404;8.566;2022-07-29T08:56:11;7.00;;;4.25;;
39242;SDS011;29823;47.404;8.566;2022-07-29T08:58:40;7.93;;;4.60;;
39242;SDS011;29823;47.404;8.566;2022-07-29T09:01:14;7.32;;;4.40;;
39242;SDS011;29823;47.404;8.566;2022-07-29T09:03:46;5.15;;;4.30;;
39242;SDS011;29823;47.404;8.566;2022-07-29T09:06:15;9.07;;;3.97;;
39242;SDS011;29823;47.404;8.566;2022-07-29T09:08:45;5.78;;;3.03;;
39242;SDS011;29823;47.404;8.566;2022-07-29T09:11:13;6.80;;;3.15;;
39242;SDS011;29823;47.404;8.566;2022-07-29T09:13:41;4.78;;;2.92;;
39242;SDS011;29823;47.404;8.566;2022-07-29T09:16:09;6.55;;;2.47;;
39242;SDS011;29823;47.404;8.566;2022-07-29T09:18:38;3.55;;;2.70;;
39242;SDS011;29823;47.404;8.566;2022-07-29T09:21:07;4.97;;;2.92;;
39242;SDS011;29823;47.404;8.566;2022-07-29T09:24:00;5.15;;;2.72;;
39242;SDS011;29823;47.404;8.566;2022-07-29T09:26:31;5.07;;;2.72;;
39242;SDS011;29823;47.404;8.566;2022-07-29T09:28:59;6.55;;;2.70;;
39242;SDS011;29823;47.404;8.566;2022-07-29T09:31:35;4.55;;;2.90;;
39242;SDS011;29823;47.404;8.566;2022-07-29T09:34:05;5.88;;;3.75;;
39242;SDS011;29823;47.404;8.566;2022-07-29T09:36:40;3.92;;;3.22;;
39242;SDS011;29823;47.404;8.566;2022-07-29T09:39:11;6.50;;;3.20;;
39242;SDS011;29823;47.404;8.566;2022-07-29T09:41:46;6.97;;;3.58;;
39242;SDS011;29823;47.404;8.566;2022-07-29T09:44:15;5.68;;;3.42;;
39242;SDS011;29823;47.404;8.566;2022-07-29T09:46:54;8.73;;;3.38;;
39242;SDS011;29823;47.404;8.566;2022-07-29T09:49:24;5.32;;;3.10;;
39242;SDS011;29823;47.404;8.566;2022-07-29T09:51:58;8.90;;;3.20;;
39242;SDS011;29823;47.404;8.566;2022-07-29T09:54:29;6.15;;;3.00;;
39242;SDS011;29823;47.404;8.566;2022-07-29T09:57:02;6.55;;;2.90;;
39242;SDS011;29823;47.404;8.566;2022-07-29T09:59:32;4.72;;;2.70;;
39242;SDS011;29823;47.404;8.566;2022-07-29T10:02:00;5.47;;;3.05;;
39242;SDS011;29823;47.404;8.566;2022-07-29T10:04:38;3.55;;;2.40;;
39242;SDS011;29823;47.404;8.566;2022-07-29T10:07:06;6.70;;;2.90;;
39242;SDS011;29823;47.404;8.566;2022-07-29T10:09:36;7.82;;;3.05;;
39242;SDS011;29823;47.404;8.566;2022-07-29T10:12:05;5.82;;;2.40;;
39242;SDS011;29823;47.404;8.566;2022-07-29T10:14:35;4.87;;;2.37;;
39242;SDS011;29823;47.404;8.566;2022-07-29T10:17:03;3.50;;;2.30;;
39242;SDS011;29823;47.404;8.566;2022-07-29T10:19:33;4.40;;;2.35;;
39242;SDS011;29823;47.404;8.566;2022-07-29T10:22:02;4.65;;;2.20;;
39242;SDS011;29823;47.404;8.566;2022-07-29T10:24:32;3.30;;;2.22;;
39242;SDS011;29823;47.404;8.566;2022-07-29T10:27:02;4.97;;;2.60;;
39242;SDS011;29823;47.404;8.566;2022-07-29T10:29:31;5.03;;;2.53;;
39242;SDS011;29823;47.404;8.566;2022-07-29T10:32:11;3.33;;;2.03;;
39242;SDS011;29823;47.404;8.566;2022-07-29T10:34:55;3.92;;;2.35;;
39242;SDS011;29823;47.404;8.566;2022-07-29T10:37:37;3.80;;;2.25;;
39242;SDS011;29823;47.404;8.566;2022-07-29T10:40:22;8.45;;;2.28;;
39242;SDS011;29823;47.404;8.566;2022-07-29T10:43:24;3.42;;;2.30;;
39242;SDS011;29823;47.404;8.566;2022-07-29T10:45:57;5.22;;;2.30;;
39242;SDS011;29823;47.404;8.566;2022-07-29T10:48:27;3.78;;;2.42;;
39242;SDS011;29823;47.404;8.566;2022-07-29T10:50:55;6.57;;;2.75;;
39242;SDS011;29823;47.404;8.566;2022-07-29T10:56:25;3.42;;;2.30;;
39242;SDS011;29823;47.404;8.566;2022-07-29T11:02:01;4.72;;;2.20;;
39242;SDS011;29823;47.404;8.566;2022-07-29T11:04:59;1.67;;;1.58;;
39242;SDS011;29823;47.404;8.566;2022-07-29T11:07:27;2.83;;;2.00;;
39242;SDS011;29823;47.404;8.566;2022-07-29T11:10:21;5.68;;;2.08;;
39242;SDS011;29823;47.404;8.566;2022-07-29T11:12:56;7.35;;;2.50;;
39242;SDS011;29823;47.404;8.566;2022-07-29T11:15:26;3.78;;;1.90;;
39242;SDS011;29823;47.404;8.566;2022-07-29T11:18:04;4.22;;;2.20;;
39242;SDS011;29823;47.404;8.566;2022-07-29T11:20:40;3.50;;;2.20;;
39242;SDS011;29823;47.404;8.566;2022-07-29T11:23:23;5.22;;;2.33;;
39242;SDS011;29823;47.404;8.566;2022-07-29T11:26:12;4.57;;;2.08;;
39242;SDS011;29823;47.404;8.566;2022-07-29T11:28:48;8.38;;;2.40;;
39242;SDS011;29823;47.404;8.566;2022-07-29T11:31:32;3.38;;;2.20;;
39242;SDS011;29823;47.404;8.566;2022-07-29T11:34:16;5.53;;;2.10;;
39242;SDS011;29823;47.404;8.566;2022-07-29T11:42:52;7.63;;;2.05;;
39242;SDS011;29823;47.404;8.566;2022-07-29T11:45:24;3.75;;;2.15;;
39242;SDS011;29823;47.404;8.566;2022-07-29T11:48:16;2.45;;;1.95;;
39242;SDS011;29823;47.404;8.566;2022-07-29T11:50:57;5.45;;;2.10;;
39242;SDS011;29823;47.404;8.566;2022-07-29T11:53:26;7.75;;;2.20;;
39242;SDS011;29823;47.404;8.566;2022-07-29T11:55:58;4.10;;;2.60;;
39242;SDS011;29823;47.404;8.566;2022-07-29T11:58:46;5.32;;;2.30;;
39242;SDS011;29823;47.404;8.566;2022-07-29T12:01:16;3.35;;;2.25;;
39242;SDS011;29823;47.404;8.566;2022-07-29T12:03:46;5.68;;;2.85;;
39242;SDS011;29823;47.404;8.566;2022-07-29T12:06:13;8.50;;;2.30;;
39242;SDS011;29823;47.404;8.566;2022-07-29T12:08:43;2.90;;;2.17;;
39242;SDS011;29823;47.404;8.566;2022-07-29T12:11:16;5.22;;;2.22;;
39242;SDS011;29823;47.404;8.566;2022-07-29T12:13:46;3.97;;;2.22;;
39242;SDS011;29823;47.404;8.566;2022-07-29T12:16:15;3.85;;;2.15;;
39242;SDS011;29823;47.404;8.566;2022-07-29T12:18:56;3.45;;;2.17;;
39242;SDS011;29823;47.404;8.566;2022-07-29T12:21:25;6.15;;;2.60;;
39242;SDS011;29823;47.404;8.566;2022-07-29T12:23:55;7.20;;;2.50;;
39242;SDS011;29823;47.404;8.566;2022-07-29T12:26:34;3.67;;;2.25;;
39242;SDS011;29823;47.404;8.566;2022-07-29T12:29:02;4.78;;;1.95;;
39242;SDS011;29823;47.404;8.566;2022-07-29T12:31:40;3.88;;;2.50;;
39242;SDS011;29823;47.404;8.566;2022-07-29T12:34:12;7.18;;;2.35;;
39242;SDS011;29823;47.404;8.566;2022-07-29T12:39:10;3.25;;;2.20;;
39242;SDS011;29823;47.404;8.566;2022-07-29T12:41:38;5.05;;;2.60;;
39242;SDS011;29823;47.404;8.566;2022-07-29T12:44:06;4.22;;;2.50;;
39242;SDS011;29823;47.404;8.566;2022-07-29T12:46:34;5.18;;;2.40;;
39242;SDS011;29823;47.404;8.566;2022-07-29T12:49:04;8.45;;;2.97;;
39242;SDS011;29823;47.404;8.566;2022-07-29T12:51:34;6.10;;;3.05;;
39242;SDS011;29823;47.404;8.566;2022-07-29T12:54:06;5.57;;;2.45;;
39242;SDS011;29823;47.404;8.566;2022-07-29T12:56:36;5.90;;;2.53;;
39242;SDS011;29823;47.404;8.566;2022-07-29T12:59:14;5.25;;;3.08;;
39242;SDS011;29823;47.404;8.566;2022-07-29T13:01:43;6.07;;;2.60;;
39242;SDS011;29823;47.404;8.566;2022-07-29T13:04:23;6.80;;;3.38;;
39242;SDS011;29823;47.404;8.566;2022-07-29T13:06:59;3.40;;;3.00;;
39242;SDS011;29823;47.404;8.566;2022-07-29T13:09:36;7.30;;;3.20;;
39242;SDS011;29823;47.404;8.566;2022-07-29T13:12:06;3.90;;;2.42;;
39242;SDS011;29823;47.404;8.566;2022-07-29T13:14:36;4.10;;;2.97;;
39242;SDS011;29823;47.404;8.566;2022-07-29T13:17:06;5.70;;;2.58;;
39242;SDS011;29823;47.404;8.566;2022-07-29T13:19:36;4.88;;;2.92;;
39242;SDS011;29823;47.404;8.566;2022-07-29T13:22:08;3.40;;;2.70;;
39242;SDS011;29823;47.404;8.566;2022-07-29T13:24:46;7.95;;;2.75;;
39242;SDS011;29823;47.404;8.566;2022-07-29T13:27:15;12.27;;;3.50;;
39242;SDS011;29823;47.404;8.566;2022-07-29T13:29:43;11.02;;;3.17;;
39242;SDS011;29823;47.404;8.566;2022-07-29T13:32:11;13.40;;;4.70;;
39242;SDS011;29823;47.404;8.566;2022-07-29T13:34:40;16.73;;;5.60;;
39242;SDS011;29823;47.404;8.566;2022-07-29T13:37:09;11.65;;;5.78;;
39242;SDS011;29823;47.404;8.566;2022-07-29T13:39:37;14.48;;;6.88;;
39242;SDS011;29823;47.404;8.566;2022-07-29T13:42:06;23.40;;;7.57;;
39242;SDS011;29823;47.404;8.566;2022-07-29T13:44:36;15.80;;;8.07;;
39242;SDS011;29823;47.404;8.566;2022-07-29T13:47:04;21.10;;;9.50;;
39242;SDS011;29823;47.404;8.566;2022-07-29T13:49:32;20.52;;;10.10;;
39242;SDS011;29823;47.404;8.566;2022-07-29T13:52:00;19.90;;;10.68;;
39242;SDS011;29823;47.404;8.566;2022-07-29T13:54:29;20.67;;;10.13;;
39242;SDS011;29823;47.404;8.566;2022-07-29T13:56:56;16.52;;;9.57;;
39242;SDS011;29823;47.404;8.566;2022-07-29T13:59:24;16.80;;;10.02;;
39242;SDS011;29823;47.404;8.566;2022-07-29T14:01:52;16.17;;;8.23;;
39242;SDS011;29823;47.404;8.566;2022-07-29T14:04:20;12.15;;;7.65;;
39242;SDS011;29823;47.404;8.566;2022-07-29T14:06:49;15.93;;;9.20;;
39242;SDS011;29823;47.404;8.566;2022-07-29T14:09:17;15.07;;;10.23;;
39242;SDS011;29823;47.404;8.566;2022-07-29T14:11:46;16.60;;;10.85;;
39242;SDS011;29823;47.404;8.566;2022-07-29T14:14:15;16.38;;;11.30;;
39242;SDS011;29823;47.404;8.566;2022-07-29T14:16:43;13.68;;;9.48;;
39242;SDS011;29823;47.404;8.566;2022-07-29T14:19:15;13.45;;;11.10;;
39242;SDS011;29823;47.404;8.566;2022-07-29T14:21:43;16.52;;;10.20;;
39242;SDS011;29823;47.404;8.566;2022-07-29T14:24:12;14.32;;;11.00;;
39242;SDS011;29823;47.404;8.566;2022-07-29T14:26:49;13.70;;;11.52;;
39242;SDS011;29823;47.404;8.566;2022-07-29T14:29:17;20.92;;;12.57;;
39242;SDS011;29823;47.404;8.566;2022-07-29T14:31:45;13.15;;;11.20;;
39242;SDS011;29823;47.404;8.566;2022-07-29T14:34:13;16.02;;;12.65;;
39242;SDS011;29823;47.404;8.566;2022-07-29T14:36:41;16.95;;;12.75;;
39242;SDS011;29823;47.404;8.566;2022-07-29T14:39:09;13.52;;;10.45;;
39242;SDS011;29823;47.404;8.566;2022-07-29T14:41:37;10.77;;;9.68;;
39242;SDS011;29823;47.404;8.566;2022-07-29T14:44:07;14.77;;;10.15;;
39242;SDS011;29823;47.404;8.566;2022-07-29T14:46:34;14.35;;;10.95;;
39242;SDS011;29823;47.404;8.566;2022-07-29T14:49:02;17.25;;;10.90;;
39242;SDS011;29823;47.404;8.566;2022-07-29T14:51:34;16.10;;;10.18;;
39242;SDS011;29823;47.404;8.566;2022-07-29T14:54:02;14.65;;;10.45;;
39242;SDS011;29823;47.404;8.566;2022-07-29T14:56:30;11.88;;;9.85;;
39242;SDS011;29823;47.404;8.566;2022-07-29T14:59:03;20.30;;;11.27;;
39242;SDS011;29823;47.404;8.566;2022-07-29T15:01:34;15.65;;;10.65;;
39242;SDS011;29823;47.404;8.566;2022-07-29T15:04:03;15.15;;;10.68;;
39242;SDS011;29823;47.404;8.566;2022-07-29T15:06:31;13.80;;;9.60;;
39242;SDS011;29823;47.404;8.566;2022-07-29T15:08:59;18.45;;;10.23;;
39242;SDS011;29823;47.404;8.566;2022-07-29T15:11:26;14.10;;;9.95;;
39242;SDS011;29823;47.404;8.566;2022-07-29T15:13:54;12.85;;;8.68;;
39242;SDS011;29823;47.404;8.566;2022-07-29T15:16:22;11.88;;;9.38;;
39242;SDS011;29823;47.404;8.566;2022-07-29T15:18:51;13.93;;;9.90;;
39242;SDS011;29823;47.404;8.566;2022-07-29T15:21:19;11.65;;;8.52;;
39242;SDS011;29823;47.404;8.566;2022-07-29T15:23:47;16.67;;;9.40;;